sensor_id;sensor_type;location;lat;lon;timestamp;temperature;humidity
19192;DHT22;9728;48.194;16.346;2022-12-15T00:04:00;9.50;47.90
19192;DHT22;9728;48.194;16.346;2022-12-15T00:09:22;9.50;47.80
19192;DHT22;9728;48.194;16.346;2022-12-15T00:14:43;9.60;47.90
19192;DHT22;9728;48.194;16.346;2022-12-15T00:20:04;9.50;47.80
19192;DHT22;9728;48.194;16.346;2022-12-15T00:25:27;9.50;47.80
19192;DHT22;9728;48.194;16.346;2022-12-15T00:30:48;9.50;47.90
19192;DHT22;9728;48.194;16.346;2022-12-15T00:36:09;9.60;48.00
19192;DHT22;9728;48.194;16.346;2022-12-15T00:41:31;9.60;47.80
19192;DHT22;9728;48.194;16.346;2022-12-15T00:46:34;9.60;47.90
19192;DHT22;9728;48.194;16.346;2022-12-15T00:51:55;9.60;47.90
19192;DHT22;9728;48.194;16.346;2022-12-15T00:57:17;9.60;47.90
19192;DHT22;9728;48.194;16.346;2022-12-15T01:02:38;9.60;48.00
19192;DHT22;9728;48.194;16.346;2022-12-15T01:07:59;9.60;47.90
19192;DHT22;9728;48.194;16.346;2022-12-15T01:13:21;9.60;47.90
19192;DHT22;9728;48.194;16.346;2022-12-15T01:18:42;9.60;47.80
19192;DHT22;9728;48.194;16.346;2022-12-15T01:24:02;9.60;47.90
19192;DHT22;9728;48.194;16.346;2022-12-15T01:29:07;9.60;47.90
19192;DHT22;9728;48.194;16.346;2022-12-15T01:34:11;9.60;47.90
19192;DHT22;9728;48.194;16.346;2022-12-15T01:39:14;9.60;47.90
19192;DHT22;9728;48.194;16.346;2022-12-15T01:44:21;9.70;48.00
19192;DHT22;9728;48.194;16.346;2022-12-15T01:49:27;9.70;47.80
19192;DHT22;9728;48.194;16.346;2022-12-15T01:54:34;9.70;47.80
19192;DHT22;9728;48.194;16.346;2022-12-15T01:59:44;9.70;47.70
19192;DHT22;9728;48.194;16.346;2022-12-15T02:04:53;9.70;47.80
19192;DHT22;9728;48.194;16.346;2022-12-15T02:10:00;9.70;47.80
19192;DHT22;9728;48.194;16.346;2022-12-15T02:15:14;9.70;47.80
19192;DHT22;9728;48.194;16.346;2022-12-15T02:26:06;9.70;47.70
19192;DHT22;9728;48.194;16.346;2022-12-15T02:31:16;9.70;47.70
19192;DHT22;9728;48.194;16.346;2022-12-15T02:36:43;9.70;47.70
19192;DHT22;9728;48.194;16.346;2022-12-15T02:41:49;9.70;47.70
19192;DHT22;9728;48.194;16.346;2022-12-15T02:47:10;9.70;47.80
19192;DHT22;9728;48.194;16.346;2022-12-15T02:52:25;9.70;47.90
19192;DHT22;9728;48.194;16.346;2022-12-15T02:57:38;9.80;47.90
19192;DHT22;9728;48.194;16.346;2022-12-15T03:02:49;9.80;48.00
19192;DHT22;9728;48.194;16.346;2022-12-15T03:07:53;9.80;47.90
19192;DHT22;9728;48.194;16.346;2022-12-15T03:12:56;9.80;47.90
19192;DHT22;9728;48.194;16.346;2022-12-15T03:18:02;9.80;47.90
19192;DHT22;9728;48.194;16.346;2022-12-15T03:23:05;9.90;47.90
19192;DHT22;9728;48.194;16.346;2022-12-15T03:28:09;9.90;47.90
19192;DHT22;9728;48.194;16.346;2022-12-15T03:33:14;9.90;48.50
19192;DHT22;9728;48.194;16.346;2022-12-15T03:38:17;10.00;47.80
19192;DHT22;9728;48.194;16.346;2022-12-15T03:43:21;10.00;47.70
19192;DHT22;9728;48.194;16.346;2022-12-15T03:48:25;9.90;47.70
19192;DHT22;9728;48.194;16.346;2022-12-15T03:53:29;10.00;47.80
19192;DHT22;9728;48.194;16.346;2022-12-15T03:58:33;10.00;47.80
19192;DHT22;9728;48.194;16.346;2022-12-15T04:03:37;10.00;47.90
19192;DHT22;9728;48.194;16.346;2022-12-15T04:08:41;10.00;47.90
19192;DHT22;9728;48.194;16.346;2022-12-15T04:13:45;10.00;47.80
19192;DHT22;9728;48.194;16.346;2022-12-15T04:18:50;10.00;47.90
19192;DHT22;9728;48.194;16.346;2022-12-15T04:24:13;10.00;48.00
19192;DHT22;9728;48.194;16.346;2022-12-15T04:29:34;10.00;48.00
19192;DHT22;9728;48.194;16.346;2022-12-15T04:34:56;10.00;48.00
19192;DHT22;9728;48.194;16.346;2022-12-15T04:40:17;10.00;48.10
19192;DHT22;9728;48.194;16.346;2022-12-15T04:45:37;10.00;48.10
19192;DHT22;9728;48.194;16.346;2022-12-15T04:51:00;10.00;48.20
19192;DHT22;9728;48.194;16.346;2022-12-15T04:56:20;10.00;48.30
19192;DHT22;9728;48.194;16.346;2022-12-15T05:01:42;10.00;48.50
19192;DHT22;9728;48.194;16.346;2022-12-15T05:07:04;10.00;48.50
19192;DHT22;9728;48.194;16.346;2022-12-15T05:12:25;10.00;48.70
19192;DHT22;9728;48.194;16.346;2022-12-15T05:17:46;10.00;48.70
19192;DHT22;9728;48.194;16.346;2022-12-15T05:23:08;10.00;48.70
19192;DHT22;9728;48.194;16.346;2022-12-15T05:28:29;10.00;48.90
19192;DHT22;9728;48.194;16.346;2022-12-15T05:33:50;10.00;48.90
19192;DHT22;9728;48.194;16.346;2022-12-15T05:38:55;10.00;48.90
19192;DHT22;9728;48.194;16.346;2022-12-15T05:43:58;10.00;49.10
19192;DHT22;9728;48.194;16.346;2022-12-15T05:49:04;10.10;49.10
19192;DHT22;9728;48.194;16.346;2022-12-15T05:54:11;10.00;49.10
19192;DHT22;9728;48.194;16.346;2022-12-15T05:59:16;10.00;49.30
19192;DHT22;9728;48.194;16.346;2022-12-15T06:04:20;10.10;49.20
19192;DHT22;9728;48.194;16.346;2022-12-15T06:09:25;10.10;49.20
19192;DHT22;9728;48.194;16.346;2022-12-15T06:14:28;10.10;49.30
19192;DHT22;9728;48.194;16.346;2022-12-15T06:19:32;10.10;49.20
19192;DHT22;9728;48.194;16.346;2022-12-15T06:24:37;10.10;49.20
19192;DHT22;9728;48.194;16.346;2022-12-15T06:29:40;10.10;49.30
19192;DHT22;9728;48.194;16.346;2022-12-15T06:34:43;10.10;49.20
19192;DHT22;9728;48.194;16.346;2022-12-15T06:39:48;10.20;49.60
19192;DHT22;9728;48.194;16.346;2022-12-15T06:44:51;10.20;49.60
19192;DHT22;9728;48.194;16.346;2022-12-15T06:49:55;10.20;49.50
19192;DHT22;9728;48.194;16.346;2022-12-15T06:54:59;10.20;49.40
19192;DHT22;9728;48.194;16.346;2022-12-15T07:00:03;10.30;49.50
19192;DHT22;9728;48.194;16.346;2022-12-15T07:05:08;10.30;49.40
19192;DHT22;9728;48.194;16.346;2022-12-15T07:10:13;10.30;49.40
19192;DHT22;9728;48.194;16.346;2022-12-15T07:15:17;10.30;49.40
19192;DHT22;9728;48.194;16.346;2022-12-15T07:20:20;10.30;49.30
19192;DHT22;9728;48.194;16.346;2022-12-15T07:25:31;10.30;49.20
19192;DHT22;9728;48.194;16.346;2022-12-15T07:30:34;10.40;49.30
19192;DHT22;9728;48.194;16.346;2022-12-15T07:35:40;10.30;49.20
19192;DHT22;9728;48.194;16.346;2022-12-15T07:40:44;10.30;49.20
19192;DHT22;9728;48.194;16.346;2022-12-15T07:45:52;10.30;49.30
19192;DHT22;9728;48.194;16.346;2022-12-15T07:50:55;10.40;49.30
19192;DHT22;9728;48.194;16.346;2022-12-15T07:56:12;10.30;49.20
19192;DHT22;9728;48.194;16.346;2022-12-15T08:01:17;10.30;49.20
19192;DHT22;9728;48.194;16.346;2022-12-15T08:06:21;10.30;49.20
19192;DHT22;9728;48.194;16.346;2022-12-15T08:11:26;10.30;49.20
19192;DHT22;9728;48.194;16.346;2022-12-15T08:16:29;10.40;49.30
19192;DHT22;9728;48.194;16.346;2022-12-15T08:21:33;10.30;49.20
19192;DHT22;9728;48.194;16.346;2022-12-15T08:26:39;10.40;49.20
19192;DHT22;9728;48.194;16.346;2022-12-15T08:31:43;10.40;49.20
19192;DHT22;9728;48.194;16.346;2022-12-15T08:36:46;10.40;49.20
19192;DHT22;9728;48.194;16.346;2022-12-15T08:41:51;10.40;49.20
19192;DHT22;9728;48.194;16.346;2022-12-15T08:46:54;10.40;49.20
19192;DHT22;9728;48.194;16.346;2022-12-15T08:51:57;10.40;49.20
19192;DHT22;9728;48.194;16.346;2022-12-15T08:57:02;10.40;49.20
19192;DHT22;9728;48.194;16.346;2022-12-15T09:02:08;10.40;49.30
19192;DHT22;9728;48.194;16.346;2022-12-15T09:07:11;10.40;49.20
19192;DHT22;9728;48.194;16.346;2022-12-15T09:12:16;10.40;49.30
19192;DHT22;9728;48.194;16.346;2022-12-15T09:17:20;10.40;49.30
19192;DHT22;9728;48.194;16.346;2022-12-15T09:22:23;10.50;49.30
19192;DHT22;9728;48.194;16.346;2022-12-15T09:27:28;10.40;49.30
19192;DHT22;9728;48.194;16.346;2022-12-15T09:32:32;10.50;49.40
19192;DHT22;9728;48.194;16.346;2022-12-15T09:37:35;10.40;49.30
19192;DHT22;9728;48.194;16.346;2022-12-15T09:42:40;10.50;49.40
19192;DHT22;9728;48.194;16.346;2022-12-15T09:47:46;10.50;49.40
19192;DHT22;9728;48.194;16.346;2022-12-15T09:52:54;10.50;49.30
19192;DHT22;9728;48.194;16.346;2022-12-15T09:58:05;10.50;49.30
19192;DHT22;9728;48.194;16.346;2022-12-15T10:03:28;10.50;49.30
19192;DHT22;9728;48.194;16.346;2022-12-15T10:08:39;10.50;49.30
19192;DHT22;9728;48.194;16.346;2022-12-15T10:13:50;10.50;49.30
19192;DHT22;9728;48.194;16.346;2022-12-15T10:19:02;10.50;49.50
19192;DHT22;9728;48.194;16.346;2022-12-15T10:24:16;10.50;49.40
19192;DHT22;9728;48.194;16.346;2022-12-15T10:29:43;10.60;49.50
19192;DHT22;9728;48.194;16.346;2022-12-15T10:34:51;10.60;49.40
19192;DHT22;9728;48.194;16.346;2022-12-15T10:39:55;10.60;49.30
19192;DHT22;9728;48.194;16.346;2022-12-15T10:45:01;10.60;49.30
19192;DHT22;9728;48.194;16.346;2022-12-15T10:50:25;10.50;49.30
19192;DHT22;9728;48.194;16.346;2022-12-15T10:55:35;10.50;49.50
19192;DHT22;9728;48.194;16.346;2022-12-15T11:00:40;10.50;49.50
19192;DHT22;9728;48.194;16.346;2022-12-15T11:05:50;10.60;49.40
19192;DHT22;9728;48.194;16.346;2022-12-15T11:10:55;10.60;49.50
19192;DHT22;9728;48.194;16.346;2022-12-15T11:16:19;10.60;49.50
19192;DHT22;9728;48.194;16.346;2022-12-15T11:21:24;10.60;49.50
19192;DHT22;9728;48.194;16.346;2022-12-15T11:26:42;10.60;49.50
19192;DHT22;9728;48.194;16.346;2022-12-15T11:32:10;10.70;49.70
19192;DHT22;9728;48.194;16.346;2022-12-15T11:37:34;10.70;49.50
19192;DHT22;9728;48.194;16.346;2022-12-15T11:42:45;10.70;49.60
19192;DHT22;9728;48.194;16.346;2022-12-15T11:47:54;10.70;49.50
19192;DHT22;9728;48.194;16.346;2022-12-15T11:58:52;10.70;49.60
19192;DHT22;9728;48.194;16.346;2022-12-15T12:04:05;10.80;49.40
19192;DHT22;9728;48.194;16.346;2022-12-15T12:09:24;10.80;49.30
19192;DHT22;9728;48.194;16.346;2022-12-15T12:14:38;10.80;49.30
19192;DHT22;9728;48.194;16.346;2022-12-15T12:19:47;10.80;49.30
19192;DHT22;9728;48.194;16.346;2022-12-15T12:24:55;10.80;49.20
19192;DHT22;9728;48.194;16.346;2022-12-15T12:30:03;10.80;49.20
19192;DHT22;9728;48.194;16.346;2022-12-15T12:35:13;10.80;49.20
19192;DHT22;9728;48.194;16.346;2022-12-15T12:41:00;10.70;49.20
19192;DHT22;9728;48.194;16.346;2022-12-15T12:46:09;10.70;49.30
19192;DHT22;9728;48.194;16.346;2022-12-15T12:51:24;10.70;49.20
19192;DHT22;9728;48.194;16.346;2022-12-15T12:56:38;10.70;49.30
19192;DHT22;9728;48.194;16.346;2022-12-15T13:01:41;10.70;49.30
19192;DHT22;9728;48.194;16.346;2022-12-15T13:07:02;10.70;49.20
19192;DHT22;9728;48.194;16.346;2022-12-15T13:12:35;10.70;49.40
19192;DHT22;9728;48.194;16.346;2022-12-15T13:17:57;10.60;49.40
19192;DHT22;9728;48.194;16.346;2022-12-15T13:23:40;10.70;49.30
19192;DHT22;9728;48.194;16.346;2022-12-15T13:28:51;10.60;49.50
19192;DHT22;9728;48.194;16.346;2022-12-15T13:34:20;10.60;49.40
19192;DHT22;9728;48.194;16.346;2022-12-15T13:39:55;10.50;49.50
19192;DHT22;9728;48.194;16.346;2022-12-15T13:45:27;10.60;49.70
19192;DHT22;9728;48.194;16.346;2022-12-15T13:50:39;10.50;49.60
19192;DHT22;9728;48.194;16.346;2022-12-15T13:56:03;10.50;49.50
19192;DHT22;9728;48.194;16.346;2022-12-15T14:01:20;10.50;49.60
19192;DHT22;9728;48.194;16.346;2022-12-15T14:06:35;10.50;49.70
19192;DHT22;9728;48.194;16.346;2022-12-15T14:11:41;10.40;49.60
19192;DHT22;9728;48.194;16.346;2022-12-15T14:16:58;10.40;49.50
19192;DHT22;9728;48.194;16.346;2022-12-15T14:22:02;10.40;49.70
19192;DHT22;9728;48.194;16.346;2022-12-15T14:27:05;10.40;49.60
19192;DHT22;9728;48.194;16.346;2022-12-15T14:32:10;10.40;49.60
19192;DHT22;9728;48.194;16.346;2022-12-15T14:37:17;10.30;49.60
19192;DHT22;9728;48.194;16.346;2022-12-15T14:42:22;10.30;49.70
19192;DHT22;9728;48.194;16.346;2022-12-15T14:47:31;10.30;49.80
19192;DHT22;9728;48.194;16.346;2022-12-15T14:52:38;10.30;49.90
19192;DHT22;9728;48.194;16.346;2022-12-15T14:57:44;10.20;49.80
19192;DHT22;9728;48.194;16.346;2022-12-15T15:03:14;10.20;49.80
19192;DHT22;9728;48.194;16.346;2022-12-15T15:08:25;10.20;50.20
19192;DHT22;9728;48.194;16.346;2022-12-15T15:13:36;10.20;50.00
19192;DHT22;9728;48.194;16.346;2022-12-15T15:18:42;10.20;50.10
19192;DHT22;9728;48.194;16.346;2022-12-15T15:23:57;10.20;49.90
19192;DHT22;9728;48.194;16.346;2022-12-15T15:29:01;10.10;50.10
19192;DHT22;9728;48.194;16.346;2022-12-15T15:34:06;10.10;49.80
19192;DHT22;9728;48.194;16.346;2022-12-15T15:39:13;10.10;49.90
19192;DHT22;9728;48.194;16.346;2022-12-15T15:44:17;10.10;50.10
19192;DHT22;9728;48.194;16.346;2022-12-15T15:49:22;10.10;50.00
19192;DHT22;9728;48.194;16.346;2022-12-15T15:54:30;10.10;50.10
19192;DHT22;9728;48.194;16.346;2022-12-15T15:59:35;10.00;50.20
19192;DHT22;9728;48.194;16.346;2022-12-15T16:04:44;10.10;50.10
19192;DHT22;9728;48.194;16.346;2022-12-15T16:09:47;10.10;50.20
19192;DHT22;9728;48.194;16.346;2022-12-15T16:14:51;10.10;50.10
19192;DHT22;9728;48.194;16.346;2022-12-15T16:19:55;10.10;50.20
19192;DHT22;9728;48.194;16.346;2022-12-15T16:24:59;10.10;50.20
19192;DHT22;9728;48.194;16.346;2022-12-15T16:30:13;10.00;50.10
19192;DHT22;9728;48.194;16.346;2022-12-15T16:35:18;10.10;50.30
19192;DHT22;9728;48.194;16.346;2022-12-15T16:40:23;10.10;50.20
19192;DHT22;9728;48.194;16.346;2022-12-15T16:45:28;10.10;50.20
19192;DHT22;9728;48.194;16.346;2022-12-15T16:50:36;10.10;50.20
19192;DHT22;9728;48.194;16.346;2022-12-15T16:55:40;10.10;50.30
19192;DHT22;9728;48.194;16.346;2022-12-15T17:00:44;10.10;50.30
19192;DHT22;9728;48.194;16.346;2022-12-15T17:05:50;10.10;50.30
19192;DHT22;9728;48.194;16.346;2022-12-15T17:10:55;10.10;50.40
19192;DHT22;9728;48.194;16.346;2022-12-15T17:15:59;10.00;50.30
19192;DHT22;9728;48.194;16.346;2022-12-15T17:21:09;10.00;50.40
19192;DHT22;9728;48.194;16.346;2022-12-15T17:26:20;10.00;50.60
19192;DHT22;9728;48.194;16.346;2022-12-15T17:31:31;10.00;50.70
19192;DHT22;9728;48.194;16.346;2022-12-15T17:36:38;10.00;50.50
19192;DHT22;9728;48.194;16.346;2022-12-15T17:41:42;10.00;50.60
19192;DHT22;9728;48.194;16.346;2022-12-15T17:47:05;10.00;50.50
19192;DHT22;9728;48.194;16.346;2022-12-15T17:52:21;10.00;50.60
19192;DHT22;9728;48.194;16.346;2022-12-15T17:57:29;10.00;50.90
19192;DHT22;9728;48.194;16.346;2022-12-15T18:02:33;10.00;50.60
19192;DHT22;9728;48.194;16.346;2022-12-15T18:07:39;10.00;50.60
19192;DHT22;9728;48.194;16.346;2022-12-15T18:12:42;10.00;51.30
19192;DHT22;9728;48.194;16.346;2022-12-15T18:17:46;10.10;51.10
19192;DHT22;9728;48.194;16.346;2022-12-15T18:22:53;10.10;50.90
19192;DHT22;9728;48.194;16.346;2022-12-15T18:27:57;10.10;51.00
19192;DHT22;9728;48.194;16.346;2022-12-15T18:33:03;10.10;50.80
19192;DHT22;9728;48.194;16.346;2022-12-15T18:38:24;10.20;51.00
19192;DHT22;9728;48.194;16.346;2022-12-15T18:43:29;10.20;51.20
19192;DHT22;9728;48.194;16.346;2022-12-15T18:48:34;10.20;50.90
19192;DHT22;9728;48.194;16.346;2022-12-15T18:53:41;10.20;50.80
19192;DHT22;9728;48.194;16.346;2022-12-15T18:58:46;10.10;50.70
19192;DHT22;9728;48.194;16.346;2022-12-15T19:03:50;10.10;51.00
19192;DHT22;9728;48.194;16.346;2022-12-15T19:08:56;10.10;50.90
19192;DHT22;9728;48.194;16.346;2022-12-15T19:14:01;10.10;51.00
19192;DHT22;9728;48.194;16.346;2022-12-15T19:19:08;10.10;50.90
19192;DHT22;9728;48.194;16.346;2022-12-15T19:24:38;10.10;50.90
19192;DHT22;9728;48.194;16.346;2022-12-15T19:29:57;9.70;55.40
19192;DHT22;9728;48.194;16.346;2022-12-15T19:35:01;9.90;53.30
19192;DHT22;9728;48.194;16.346;2022-12-15T19:40:20;10.10;52.40
19192;DHT22;9728;48.194;16.346;2022-12-15T19:45:33;10.10;52.10
19192;DHT22;9728;48.194;16.346;2022-12-15T19:50:40;10.10;51.60
19192;DHT22;9728;48.194;16.346;2022-12-15T19:55:53;10.10;51.50
19192;DHT22;9728;48.194;16.346;2022-12-15T20:01:00;10.10;51.50
19192;DHT22;9728;48.194;16.346;2022-12-15T20:06:12;10.10;51.40
19192;DHT22;9728;48.194;16.346;2022-12-15T20:11:21;10.00;51.50
19192;DHT22;9728;48.194;16.346;2022-12-15T20:16:28;10.00;51.40
19192;DHT22;9728;48.194;16.346;2022-12-15T20:21:34;10.00;51.30
19192;DHT22;9728;48.194;16.346;2022-12-15T20:26:40;9.90;51.30
19192;DHT22;9728;48.194;16.346;2022-12-15T20:31:45;9.90;51.40
19192;DHT22;9728;48.194;16.346;2022-12-15T20:36:50;9.90;51.30
19192;DHT22;9728;48.194;16.346;2022-12-15T20:41:56;9.90;51.40
19192;DHT22;9728;48.194;16.346;2022-12-15T20:47:03;9.90;51.40
19192;DHT22;9728;48.194;16.346;2022-12-15T20:52:11;9.90;51.30
19192;DHT22;9728;48.194;16.346;2022-12-15T20:57:20;9.80;51.50
19192;DHT22;9728;48.194;16.346;2022-12-15T21:02:24;9.80;51.60
19192;DHT22;9728;48.194;16.346;2022-12-15T21:07:30;9.80;51.50
19192;DHT22;9728;48.194;16.346;2022-12-15T21:12:35;9.80;51.50
19192;DHT22;9728;48.194;16.346;2022-12-15T21:17:39;9.80;51.50
19192;DHT22;9728;48.194;16.346;2022-12-15T21:22:43;9.80;51.50
19192;DHT22;9728;48.194;16.346;2022-12-15T21:27:48;9.80;51.50
19192;DHT22;9728;48.194;16.346;2022-12-15T21:32:52;9.80;51.50
19192;DHT22;9728;48.194;16.346;2022-12-15T21:37:55;9.80;51.50
19192;DHT22;9728;48.194;16.346;2022-12-15T21:43:02;9.80;51.50
19192;DHT22;9728;48.194;16.346;2022-12-15T21:48:08;9.80;51.70
19192;DHT22;9728;48.194;16.346;2022-12-15T21:53:31;9.80;51.50
19192;DHT22;9728;48.194;16.346;2022-12-15T21:58:36;9.80;51.50
19192;DHT22;9728;48.194;16.346;2022-12-15T22:03:41;9.80;51.50
19192;DHT22;9728;48.194;16.346;2022-12-15T22:08:46;9.80;51.50
19192;DHT22;9728;48.194;16.346;2022-12-15T22:13:52;9.70;51.50
19192;DHT22;9728;48.194;16.346;2022-12-15T22:18:57;9.80;51.60
19192;DHT22;9728;48.194;16.346;2022-12-15T22:24:00;9.80;51.60
19192;DHT22;9728;48.194;16.346;2022-12-15T22:29:11;9.80;51.50
19192;DHT22;9728;48.194;16.346;2022-12-15T22:34:18;9.80;51.90
19192;DHT22;9728;48.194;16.346;2022-12-15T22:39:22;9.70;51.60
19192;DHT22;9728;48.194;16.346;2022-12-15T22:44:30;9.70;51.60
19192;DHT22;9728;48.194;16.346;2022-12-15T22:49:35;9.70;51.80
19192;DHT22;9728;48.194;16.346;2022-12-15T22:54:40;9.70;51.60
19192;DHT22;9728;48.194;16.346;2022-12-15T22:59:50;9.70;51.60
19192;DHT22;9728;48.194;16.346;2022-12-15T23:05:01;9.70;51.80
19192;DHT22;9728;48.194;16.346;2022-12-15T23:10:05;9.70;51.60
19192;DHT22;9728;48.194;16.346;2022-12-15T23:15:28;9.70;51.70
19192;DHT22;9728;48.194;16.346;2022-12-15T23:20:49;9.70;51.80
19192;DHT22;9728;48.194;16.346;2022-12-15T23:25:52;9.60;51.70
19192;DHT22;9728;48.194;16.346;2022-12-15T23:30:58;9.70;51.80
19192;DHT22;9728;48.194;16.346;2022-12-15T23:36:02;9.70;51.90
19192;DHT22;9728;48.194;16.346;2022-12-15T23:41:07;9.70;51.80
19192;DHT22;9728;48.194;16.346;2022-12-15T23:46:12;9.60;51.70
19192;DHT22;9728;48.194;16.346;2022-12-15T23:51:17;9.70;51.90
19192;DHT22;9728;48.194;16.346;2022-12-15T23:56:22;9.70;51.90
